createdAt,value
2019-04-23T00:02:46.086Z,78.60
2019-04-23T00:05:21.064Z,78.50
2019-04-23T00:07:48.651Z,78.90
2019-04-23T00:12:52.777Z,79.30
2019-04-23T00:15:10.487Z,79.30
2019-04-23T00:20:14.783Z,79.60
2019-04-23T00:25:49.743Z,80.10
2019-04-23T00:28:16.106Z,80.00
2019-04-23T00:30:44.059Z,79.50
2019-04-23T00:33:15.640Z,79.50
2019-04-23T00:35:38.271Z,79.30
2019-04-23T00:38:21.506Z,79.10
2019-04-23T00:40:40.607Z,79.10
2019-04-23T00:43:20.821Z,78.90
2019-04-23T00:48:14.970Z,79.80
2019-04-23T00:50:46.498Z,80.00
2019-04-23T00:53:10.919Z,80.30
2019-04-23T00:55:46.589Z,80.70
2019-04-23T00:58:12.840Z,80.80
2019-04-23T01:00:43.550Z,81.20
2019-04-23T01:08:12.880Z,82.00
2019-04-23T01:10:57.197Z,82.30
2019-04-23T01:15:56.336Z,82.80
2019-04-23T01:20:54.536Z,83.00
2019-04-23T01:23:32.261Z,82.80
2019-04-23T01:26:02.654Z,82.60
2019-04-23T01:28:55.795Z,82.60
2019-04-23T01:31:20.154Z,82.60
2019-04-23T01:33:53.634Z,82.60
2019-04-23T01:36:34.768Z,82.60
2019-04-23T01:38:54.741Z,82.70
2019-04-23T01:41:21.702Z,83.00
2019-04-23T01:44:06.940Z,82.70
2019-04-23T01:46:26.602Z,82.20
2019-04-23T01:48:56.766Z,82.80
2019-04-23T01:51:27.954Z,82.80
2019-04-23T01:53:54.985Z,82.50
2019-04-23T01:58:53.581Z,82.30
2019-04-23T02:01:25.765Z,81.80
2019-04-23T02:03:58.270Z,81.10
2019-04-23T02:06:25.128Z,81.10
2019-04-23T02:08:52.175Z,81.10
2019-04-23T02:11:18.374Z,80.90
2019-04-23T02:14:09.602Z,81.00
2019-04-23T02:16:26.220Z,81.20
2019-04-23T02:18:56.811Z,81.10
2019-04-23T02:21:35.105Z,81.00
2019-04-23T02:23:57.305Z,80.80
2019-04-23T02:26:46.805Z,81.00
2019-04-23T02:31:53.118Z,80.20
2019-04-23T02:34:12.189Z,79.90
2019-04-23T02:36:40.355Z,79.30
2019-04-23T02:39:21.788Z,79.20
2019-04-23T02:41:41.496Z,78.70
2019-04-23T02:44:13.147Z,77.80
2019-04-23T02:46:38.499Z,77.60
2019-04-23T02:54:04.674Z,77.50
2019-04-23T02:59:10.564Z,77.50
2019-04-23T03:01:57.596Z,77.70
2019-04-23T03:04:16.812Z,77.80
2019-04-23T03:06:40.059Z,78.00
2019-04-23T03:09:33.953Z,78.20
2019-04-23T03:11:42.121Z,78.20
2019-04-23T03:14:07.425Z,78.00
2019-04-23T03:16:53.980Z,77.60
2019-04-23T03:19:23.931Z,78.00
2019-04-23T03:22:03.787Z,78.70
2019-04-23T03:24:55.821Z,78.20
2019-04-23T03:27:19.205Z,78.70
2019-04-23T03:37:30.698Z,79.50
2019-04-23T03:42:19.988Z,79.80
2019-04-23T03:44:47.801Z,79.90
2019-04-23T03:47:18.459Z,79.90
2019-04-23T03:49:46.369Z,79.70
2019-04-23T03:52:20.726Z,79.80
2019-04-23T03:57:20.269Z,80.20
2019-04-23T04:00:03.436Z,80.50
2019-04-23T04:02:30.765Z,80.70
2019-04-23T04:04:51.877Z,80.70
2019-04-23T04:07:36.539Z,80.50
2019-04-23T04:09:57.769Z,80.60
2019-04-23T04:12:39.336Z,80.70
2019-04-23T04:15:03.905Z,80.90
2019-04-23T04:22:44.144Z,80.40
2019-04-23T04:25:08.767Z,80.10
2019-04-23T04:32:33.660Z,79.70
2019-04-23T04:40:11.055Z,79.30
2019-04-23T04:42:57.524Z,78.60
2019-04-23T04:52:41.183Z,77.20
2019-04-23T04:55:03.246Z,76.40
2019-04-23T05:00:20.269Z,73.80
2019-04-23T05:03:29.689Z,71.00
2019-04-23T05:05:20.540Z,68.80
2019-04-23T05:10:08.919Z,64.70
2019-04-23T05:12:27.450Z,64.40
2019-04-23T05:17:32.557Z,64.60
2019-04-23T05:19:57.414Z,65.00
2019-04-23T05:22:36.127Z,66.40
2019-04-23T05:24:51.269Z,63.20
2019-04-23T05:27:28.947Z,59.90
2019-04-23T05:30:06.068Z,58.70
2019-04-23T05:32:29.074Z,57.80
2019-04-23T05:34:57.674Z,56.30
2019-04-23T05:37:39.416Z,56.40
2019-04-23T05:39:56.679Z,57.10
2019-04-23T05:42:32.063Z,60.40
2019-04-23T05:50:00.745Z,57.00
2019-04-23T05:55:01.734Z,60.30
2019-04-23T05:57:27.178Z,61.20
2019-04-23T06:00:02.354Z,63.50
2019-04-23T06:02:35.346Z,65.00
2019-04-23T06:05:04.079Z,64.30
2019-04-23T06:09:59.298Z,63.50
2019-04-23T06:12:33.642Z,63.30
2019-04-23T06:14:57.411Z,61.40
2019-04-23T06:17:25.425Z,60.80
2019-04-23T06:20:07.847Z,58.40
2019-04-23T06:22:34.674Z,56.20
2019-04-23T06:25:09.324Z,55.10
2019-04-23T06:27:33.844Z,50.20
2019-04-23T06:30:21.188Z,50.30
2019-04-23T06:32:34.210Z,49.40
2019-04-23T06:35:01.303Z,48.90
2019-04-23T06:40:00.097Z,51.00
2019-04-23T06:42:36.120Z,53.00
2019-04-23T06:45:01.009Z,55.30
2019-04-23T06:47:53.986Z,56.50
2019-04-23T06:52:31.434Z,61.20
2019-04-23T06:55:08.775Z,61.10
2019-04-23T06:57:44.213Z,62.90
2019-04-23T07:00:25.805Z,62.30
2019-04-23T07:02:37.671Z,62.30
2019-04-23T07:05:14.544Z,61.10
2019-04-23T07:07:52.831Z,60.00
2019-04-23T07:10:06.772Z,59.90
2019-04-23T07:12:38.805Z,59.40
2019-04-23T07:15:33.462Z,59.90
2019-04-23T07:17:38.076Z,61.70
2019-04-23T07:20:09.287Z,61.20
2019-04-23T07:22:34.582Z,61.10
2019-04-23T07:25:11.130Z,62.80
2019-04-23T07:27:37.832Z,61.30
2019-04-23T07:32:37.735Z,62.10
2019-04-23T07:35:13.666Z,62.20
2019-04-23T07:37:48.872Z,62.80
2019-04-23T07:40:22.967Z,61.60
2019-04-23T07:43:06.473Z,61.40
2019-04-23T07:45:30.948Z,61.60
2019-04-23T07:53:17.265Z,62.20
2019-04-23T07:58:23.800Z,59.30
2019-04-23T08:03:17.322Z,59.40
2019-04-23T08:05:39.610Z,59.30
2019-04-23T08:08:07.148Z,60.30
2019-04-23T08:10:55.201Z,59.60
2019-04-23T08:13:17.712Z,59.30
2019-04-23T08:18:16.107Z,58.40
2019-04-23T08:20:42.029Z,57.20
2019-04-23T08:23:16.203Z,56.90
2019-04-23T08:26:03.231Z,56.20
2019-04-23T08:28:37.821Z,54.30
2019-04-23T08:30:56.781Z,53.40
2019-04-23T08:33:24.757Z,52.40
2019-04-23T08:35:57.685Z,48.40
2019-04-23T08:38:32.411Z,48.20
2019-04-23T08:41:06.099Z,48.90
2019-04-23T08:43:47.809Z,51.20
2019-04-23T08:46:07.143Z,52.20
2019-04-23T08:48:34.493Z,53.40
2019-04-23T08:51:10.773Z,52.80
2019-04-23T08:56:07.462Z,52.90
2019-04-23T09:01:06.329Z,53.30
2019-04-23T09:06:05.859Z,53.60
2019-04-23T09:08:33.174Z,53.60
2019-04-23T09:18:32.167Z,50.80
2019-04-23T09:21:05.441Z,50.80
2019-04-23T09:28:43.382Z,48.90
2019-04-23T09:31:38.576Z,48.00
2019-04-23T09:36:38.097Z,45.70
2019-04-23T09:39:07.043Z,44.00
2019-04-23T09:41:58.903Z,42.90
2019-04-23T09:49:50.147Z,39.10
2019-04-23T09:52:20.126Z,37.40
2019-04-23T09:54:58.609Z,35.70
2019-04-23T09:57:10.573Z,33.90
2019-04-23T10:02:06.818Z,33.90
2019-04-23T10:04:36.542Z,33.60
2019-04-23T10:07:05.491Z,33.40
2019-04-23T10:09:22.738Z,33.10
2019-04-23T10:11:53.281Z,32.40
2019-04-23T10:14:21.775Z,31.70
2019-04-23T10:16:51.660Z,32.30
2019-04-23T10:19:20.519Z,35.10
2019-04-23T10:21:49.200Z,33.50
2019-04-23T10:24:19.106Z,32.60
2019-04-23T10:26:48.138Z,32.20
2019-04-23T10:29:21.494Z,31.70
2019-04-23T10:31:51.091Z,31.40
2019-04-23T10:34:21.179Z,33.10
2019-04-23T10:36:51.187Z,34.20
2019-04-23T10:39:25.801Z,33.70
2019-04-23T10:41:50.962Z,33.50
2019-04-23T10:44:23.325Z,32.90
2019-04-23T10:47:23.712Z,34.10
2019-04-23T10:49:59.788Z,32.90
2019-04-23T10:52:28.028Z,32.30
2019-04-23T10:55:00.807Z,35.00
2019-04-23T10:57:22.670Z,35.50
2019-04-23T10:59:53.950Z,35.30
2019-04-23T11:05:00.439Z,33.30
2019-04-23T11:17:45.605Z,36.30
2019-04-23T11:25:26.396Z,37.80
2019-04-23T11:27:53.925Z,39.10
2019-04-23T11:30:27.494Z,41.00
2019-04-23T11:35:26.191Z,42.90
2019-04-23T11:40:15.820Z,45.60
2019-04-23T11:42:51.373Z,45.10
2019-04-23T11:45:30.593Z,45.00
2019-04-23T11:50:25.911Z,45.70
2019-04-23T11:52:52.324Z,47.00
2019-04-23T11:55:35.790Z,46.90
2019-04-23T12:00:25.963Z,45.50
2019-04-23T12:02:57.537Z,46.60
2019-04-23T12:05:58.302Z,46.10
2019-04-23T12:08:34.933Z,45.90
2019-04-23T12:11:27.201Z,46.00
2019-04-23T12:13:52.604Z,46.30
2019-04-23T12:16:20.488Z,46.70
2019-04-23T12:19:01.848Z,48.30
2019-04-23T12:21:24.159Z,47.50
2019-04-23T12:24:22.730Z,47.10
2019-04-23T12:26:35.817Z,46.70
2019-04-23T12:31:24.648Z,48.60
2019-04-23T12:33:57.588Z,49.90
2019-04-23T12:39:05.378Z,49.60
2019-04-23T12:41:30.555Z,48.70
2019-04-23T12:43:58.053Z,49.20
2019-04-23T12:46:38.456Z,49.20
2019-04-23T12:49:34.717Z,49.80
2019-04-23T12:51:43.570Z,49.80
2019-04-23T12:53:57.566Z,50.60
2019-04-23T12:56:40.331Z,51.70
2019-04-23T12:59:01.703Z,51.60
2019-04-23T13:01:36.018Z,51.80
2019-04-23T13:03:51.016Z,52.20
2019-04-23T13:06:28.211Z,52.10
2019-04-23T13:09:00.883Z,52.30
2019-04-23T13:11:34.434Z,52.70
2019-04-23T13:14:07.185Z,52.60
2019-04-23T13:19:21.476Z,52.90
2019-04-23T13:21:51.294Z,53.20
2019-04-23T13:24:30.719Z,52.80
2019-04-23T13:26:56.921Z,54.10
2019-04-23T13:29:37.955Z,53.80
2019-04-23T13:31:59.000Z,53.30
2019-04-23T13:34:34.865Z,54.20
2019-04-23T13:39:33.300Z,54.70
2019-04-23T13:41:53.977Z,54.50
2019-04-23T13:44:27.652Z,55.20
2019-04-23T13:47:00.542Z,55.00
2019-04-23T13:49:26.046Z,54.00
2019-04-23T13:52:02.700Z,54.10
2019-04-23T13:54:52.695Z,53.70
2019-04-23T13:59:39.245Z,53.80
2019-04-23T14:02:03.248Z,53.30
2019-04-23T14:04:45.107Z,54.10
2019-04-23T14:07:10.799Z,53.00
2019-04-23T14:12:11.504Z,53.10
2019-04-23T14:15:12.804Z,54.00
2019-04-23T14:17:18.716Z,54.90
2019-04-23T14:19:39.292Z,54.10
2019-04-23T14:22:21.214Z,54.30
2019-04-23T14:24:45.783Z,55.30
2019-04-23T14:27:14.790Z,55.20
2019-04-23T14:29:48.223Z,56.00
2019-04-23T14:32:20.865Z,55.50
2019-04-23T14:34:43.623Z,55.80
2019-04-23T14:37:14.931Z,55.80
2019-04-23T14:39:43.689Z,56.60
2019-04-23T14:42:21.747Z,56.50
2019-04-23T14:44:40.602Z,56.20
2019-04-23T14:47:29.007Z,56.00
2019-04-23T14:55:22.154Z,56.80
2019-04-23T14:57:26.279Z,56.90
2019-04-23T14:59:57.390Z,56.60
2019-04-23T15:02:19.448Z,57.00
2019-04-23T15:04:54.405Z,57.30
2019-04-23T15:07:22.996Z,57.80
2019-04-23T15:10:01.507Z,57.30
2019-04-23T15:12:30.192Z,57.00
2019-04-23T15:15:02.590Z,58.10
2019-04-23T15:17:26.899Z,57.40
2019-04-23T15:22:35.135Z,58.00
2019-04-23T15:25:15.335Z,57.80
2019-04-23T15:28:03.108Z,58.30
2019-04-23T15:29:56.469Z,57.70
2019-04-23T15:33:23.562Z,58.60
2019-04-23T15:38:20.487Z,58.00
2019-04-23T15:40:36.694Z,57.60
2019-04-23T15:43:12.184Z,57.10
2019-04-23T15:48:06.461Z,57.60
2019-04-23T15:53:01.322Z,57.70
2019-04-23T15:55:27.551Z,58.30
2019-04-23T16:02:38.312Z,58.20
2019-04-23T16:05:09.442Z,58.40
2019-04-23T16:07:57.986Z,58.90
2019-04-23T16:10:45.674Z,58.80
2019-04-23T16:13:14.944Z,59.20
2019-04-23T16:15:38.523Z,59.30
2019-04-23T16:18:29.856Z,59.30
2019-04-23T16:21:12.531Z,59.40
2019-04-23T16:23:17.868Z,59.30
2019-04-23T16:25:49.716Z,59.30
2019-04-23T16:28:18.994Z,59.70
2019-04-23T16:30:59.588Z,59.70
2019-04-23T16:33:11.038Z,59.60
2019-04-23T16:38:36.662Z,60.20
2019-04-23T16:41:09.551Z,61.00
2019-04-23T16:45:53.150Z,61.00
2019-04-23T16:48:46.111Z,61.60
2019-04-23T16:51:11.252Z,60.70
2019-04-23T16:53:21.619Z,61.30
2019-04-23T16:55:55.094Z,62.00
2019-04-23T16:58:36.596Z,62.60
2019-04-23T17:03:31.495Z,62.80
2019-04-23T17:06:08.558Z,63.50
2019-04-23T17:08:52.275Z,63.30
2019-04-23T17:11:10.029Z,64.30
2019-04-23T17:13:39.889Z,63.80
2019-04-23T17:16:06.672Z,64.20
2019-04-23T17:18:31.301Z,65.10
2019-04-23T17:20:56.396Z,65.80
2019-04-23T17:23:50.116Z,66.30
2019-04-23T17:26:04.213Z,66.30
2019-04-23T17:31:18.812Z,67.80
2019-04-23T17:38:49.412Z,69.20
2019-04-23T17:44:12.573Z,70.20
2019-04-23T17:46:39.444Z,71.10
2019-04-23T17:49:08.151Z,71.90
2019-04-23T17:51:26.046Z,73.20
2019-04-23T17:54:17.873Z,73.10
2019-04-23T17:59:04.315Z,74.10
2019-04-23T18:01:59.244Z,74.60
2019-04-23T18:09:11.042Z,76.70
2019-04-23T18:11:31.301Z,77.10
2019-04-23T18:14:02.258Z,77.80
2019-04-23T18:22:02.743Z,79.70
2019-04-23T18:24:22.773Z,79.40
2019-04-23T18:27:02.901Z,80.30
2019-04-23T18:32:13.129Z,80.10
2019-04-23T18:34:54.963Z,80.40
2019-04-23T18:37:12.106Z,81.00
2019-04-23T18:39:36.931Z,79.30
2019-04-23T18:47:07.599Z,80.20
2019-04-23T18:49:40.959Z,80.10
2019-04-23T18:52:05.135Z,79.80
2019-04-23T18:59:47.411Z,78.90
2019-04-23T19:02:24.066Z,79.50
2019-04-23T19:05:02.880Z,78.60
2019-04-23T19:07:27.424Z,79.20
2019-04-23T19:10:16.893Z,78.50
2019-04-23T19:12:48.813Z,78.40
2019-04-23T19:15:15.462Z,77.70
2019-04-23T19:20:18.073Z,77.40
2019-04-23T19:22:46.265Z,76.70
2019-04-23T19:25:21.122Z,77.20
2019-04-23T19:27:57.377Z,77.00
2019-04-23T19:30:14.020Z,77.10
2019-04-23T19:32:50.685Z,76.80
2019-04-23T19:35:44.122Z,76.70
2019-04-23T19:37:55.617Z,76.50
2019-04-23T19:40:24.406Z,75.40
2019-04-23T19:42:55.406Z,75.30
2019-04-23T19:45:24.595Z,75.90
2019-04-23T19:48:09.317Z,75.50
2019-04-23T19:50:29.890Z,75.30
2019-04-23T19:55:16.947Z,75.40
2019-04-23T19:57:55.330Z,75.60
2019-04-23T20:00:17.510Z,76.10
2019-04-23T20:05:23.594Z,75.70
2019-04-23T20:07:54.535Z,75.30
2019-04-23T20:10:21.377Z,75.30
2019-04-23T20:12:44.602Z,74.80
2019-04-23T20:15:15.866Z,74.90
2019-04-23T20:17:51.271Z,74.90
2019-04-23T20:20:26.520Z,74.60
2019-04-23T20:22:52.018Z,74.10
2019-04-23T20:30:41.327Z,74.00
2019-04-23T20:33:49.227Z,74.10
2019-04-23T20:35:44.992Z,73.50
2019-04-23T20:40:49.086Z,72.60
2019-04-23T20:43:09.351Z,73.50
2019-04-23T20:48:17.401Z,73.30
2019-04-23T20:50:41.926Z,73.30
2019-04-23T20:53:06.561Z,73.30
2019-04-23T20:56:05.517Z,73.40
2019-04-23T20:58:14.153Z,73.40
2019-04-23T21:00:57.026Z,73.10
2019-04-23T21:03:28.942Z,73.40
2019-04-23T21:05:41.236Z,73.80
2019-04-23T21:08:16.244Z,73.70
2019-04-23T21:10:40.512Z,73.60
2019-04-23T21:13:27.186Z,73.60
2019-04-23T21:15:45.998Z,72.90
2019-04-23T21:18:26.469Z,73.10
2019-04-23T21:20:54.781Z,72.30
2019-04-23T21:28:37.263Z,72.60
2019-04-23T21:31:28.290Z,72.90
2019-04-23T21:36:13.386Z,73.00
2019-04-23T21:39:07.416Z,72.70
2019-04-23T21:44:08.302Z,72.70
2019-04-23T21:46:38.300Z,71.50
2019-04-23T21:56:35.370Z,71.70
2019-04-23T21:59:28.614Z,71.70
2019-04-23T22:04:08.845Z,72.10
2019-04-23T22:09:08.805Z,72.60
2019-04-23T22:14:04.122Z,72.80
2019-04-23T22:19:10.220Z,72.80
2019-04-23T22:21:36.714Z,72.20
2019-04-23T22:26:28.563Z,72.60
2019-04-23T22:29:05.513Z,72.60
2019-04-23T22:31:38.739Z,72.80
2019-04-23T22:34:06.259Z,72.30
2019-04-23T22:36:21.046Z,71.80
2019-04-23T22:39:00.341Z,71.70
2019-04-23T22:41:30.357Z,72.50
2019-04-23T22:44:07.135Z,71.70
2019-04-23T22:46:43.273Z,71.50
2019-04-23T22:49:14.598Z,71.10
2019-04-23T22:51:47.605Z,71.50
2019-04-23T22:54:05.520Z,72.40
2019-04-23T22:56:42.638Z,72.00
2019-04-23T22:59:10.296Z,71.70
2019-04-23T23:01:42.175Z,72.30
2019-04-23T23:04:18.053Z,71.60
2019-04-23T23:09:25.374Z,72.30
2019-04-23T23:14:28.092Z,73.10
2019-04-23T23:17:09.149Z,73.60
2019-04-23T23:19:40.416Z,73.40
2019-04-23T23:22:10.469Z,73.70
2019-04-23T23:24:38.625Z,73.70
2019-04-23T23:27:16.689Z,74.10
2019-04-23T23:29:42.590Z,74.20
2019-04-23T23:32:09.288Z,74.00
2019-04-23T23:34:58.518Z,74.70
2019-04-23T23:37:07.415Z,74.60
2019-04-23T23:39:39.148Z,74.70
2019-04-23T23:42:11.160Z,74.50
2019-04-23T23:44:54.558Z,74.80
2019-04-23T23:47:13.159Z,74.90
2019-04-23T23:49:48.420Z,75.10
2019-04-23T23:52:21.137Z,75.40
2019-04-23T23:54:35.718Z,75.60
